AirNav   Air Wisconsin pilot careers
 
 843 users online  

C27 Manchester Municipal Airport
Manchester, Iowa, USA

GOING TO MANCHESTER?


FAA INFORMATION EFFECTIVE 01 FEBRUARY 2018

Location

FAA Identifier: C27
Lat/Long: 42-29-25.7850N / 091-29-52.3450W
42-29.429750N / 091-29.872417W
42.4904958 / -91.4978736
(estimated)
Elevation: 987 ft. / 300.8 m (surveyed)
Variation: 02E (1985)
From city: 2 miles W of MANCHESTER, IA
Time zone: UTC -6 (UTC -5 during Daylight Saving Time)
Zip code: 52057

Airport Operations

Airport use: Open to the public
Activation date: 12/1963
Control tower: no
ARTCC: CHICAGO CENTER
FSS: FORT DODGE FLIGHT SERVICE STATION
NOTAMs facility: FOD (NOTAM-D service available)
Attendance: ON CALL
Wind indicator: lighted
Segmented circle: no
Beacon: white-green (lighted land airport)
Operates sunset to sunrise.

Airport Communications

CTAF: 122.9

Nearby radio navigation aids

VOR radial/distance  VOR name  Freq  Var
DBQr275/35.3DUBUQUE VORTAC115.8004E
CIDr014/38.4CEDAR RAPIDS VOR/DME114.1005E

 
NDB name  Hdg/Dist  Freq  Var  ID
WAPSIE084/20.220600EIIB .. .. -...

Airport Services

Fuel available: 100LL
Parking: tiedowns
Airframe service: NONE
Powerplant service: NONE

Runway Information

Runway 18/36

Dimensions: 3465 x 50 ft. / 1056 x 15 m
EXTENDED 190' RWY 18 END
Surface: asphalt, in good condition
Runway edge lights: low intensity
RUNWAY 18  RUNWAY 36
Latitude: 42-29.715167N42-29.144333N
Longitude: 091-29.873500W091-29.871333W
Elevation: 948.0 ft.948.0 ft.
Traffic pattern: leftleft
Displaced threshold: no305 ft.
Markings: basic, in good conditionbasic, in good condition
Obstructions: 20 ft. tree, 1033 ft. from runway, 63 ft. right of centerline, 41:1 slope to clear28 ft. bldg, 295 ft. from runway, 95 ft. right of centerline, 3:1 slope to clear
RWY 36 APCH SLOPE 21:1 TO DSPLCD THLD.

Airport Ownership and Management from official FAA records

Ownership: Publicly-owned
Owner: CITY OF MANCHESTER
208 E MAIN STREET
MANCHESTER, IA 52057
Phone 563-927-3636
Manager: TIM VICK
208 E MAIN STREET
MANCHESTER, IA 52057
Phone 563-927-3636
563-920-0867 CELL OR 563-927-3355 POLICE.

Airport Operational Statistics

Aircraft based on the field: 19
Single engine airplanes: 13
Helicopters: 1
Ultralights: 5
    
Aircraft operations: avg 21/week *
61% transient general aviation
39% local general aviation
* for 12-month period ending 31 July 2017

Additional Remarks

ULTRALIGHT ACTIVITY IN VICINITY OF ARPT.
DEER ON & INVOF ARPT.

Instrument Procedures

There are no published instrument procedures at C27.

Some nearby airports with instrument procedures:

KIIB - Independence Municipal Airport (20 nm W)
KMXO - Monticello Regional Airport (22 nm SE)
KOLZ - Oelwein Municipal Airport (24 nm NW)
KVTI - Vinton Veterans Memorial Airpark (29 nm SW)
3Y2 - George L Scott Municipal Airport (32 nm NW)
 
Loc | Ops | Rwys | IFR | FBO | Links
Com | Nav | Svcs | Stats | Notes

AirNav Hotels Sweepstakes
 
Area around C27 (Manchester Municipal Airport)
 
Road maps at: MapQuest Bing Google
 
Aerial photo
WARNING: Photo may not be current or correct
Aerial photo of C27 (Manchester Municipal Airport)
Do you have a better or more recent aerial photo of Manchester Municipal Airport that you would like to share? If so, please send us your photo.

 
Sectional chart

 
Airport distance calculator
Flying to Manchester Municipal Airport? Find the distance to fly.

From to C27

Sunrise and sunset
Times for 17-Feb-2018
 Local
(UTC-6)
 Zulu
(UTC)
Morning civil twilight06:3212:32
Sunrise07:0113:01
Sunset17:3923:39
Evening civil twilight18:0800:08

Current date and time
Zulu (UTC)  18-Feb-2018 01:20:41
Local (UTC-6)  17-Feb-2018 19:20:41
 
METAR
KIIB 
20nm W 
180055Z AUTO 28005KT 10SM CLR M07/M08 A3007 RMK AO2 T10671076
KMXO 
22nm SE 
180055Z AUTO 27004KT 10SM SCT018 M04/M05 A3008 RMK AO2
KOLZ 
23nm NW 
180055Z AUTO 25007KT 10SM CLR M04/M04 A3007 RMK AO2
KVTI 
29nm SW 
180055Z AUTO 27005KT 10SM CLR M01/M03 A3008 RMK AO2 T10071031
KDBQ 
36nm E 
180053Z 28011KT 10SM OVC014 M03/M06 A3006 RMK AO2 SLP195 T10281056
KPDC 
36nm NE 
180055Z AUTO 28005KT 10SM OVC020 M01/M05 A3006 RMK AO2 T10071050
KCID 
38nm S 
180052Z 28006KT 9SM CLR M06/M07 A3009 RMK AO2 SLP204 T10561067
KALO 
40nm W 
180054Z 25006KT 10SM CLR M04/M06 A3008 RMK AO2 SLP199 T10441056
TAF
KDBQ 
36nm E 
172008Z 1720/1818 21008KT 1/2SM FZFG OVC010 FM172100 24005KT P6SM OVC014 FM172200 27010KT P6SM OVC020 FM180200 18007KT P6SM BKN250 FM181500 17016KT P6SM BKN250
KCID 
38nm S 
180001Z 1800/1824 29006KT P6SM FEW020 FM180600 VRB03KT 4SM BR SCT250 FM180900 16003KT 1SM BR SCT004 FM181300 15008KT 3SM BR SCT007 FM181500 16015G22KT P6SM BKN150
KALO 
40nm W 
172106Z 1721/1818 29013G20KT P6SM BKN015 BKN035 FM172200 27009KT P6SM SCT040 BKN100 FM180600 VRB03KT 5SM BR FEW200 FM181300 15010G16KT P6SM BKN220 FM181500 17017G28KT P6SM SCT220 WS020/19050KT
NOTAMs
Click for the latest NOTAMs
NOTAMs are issued by the DoD/FAA and will open in a separate window not controlled by AirNav.

 

 
 

FBO, Fuel Providers, and Aircraft Ground Support

  
 Business Name 
 
 Contact 
 
 Services / Description 
 
Fuel Prices
 
Comments
  
Manchester Municipal Airport 563-927-3636
no information available

If you are affiliated with Manchester Municipal Airport and would like to show here your services, contact info, web link, logo, and more, click here
100LL
SS $4.58 
 Updated 29-Jan-2018
 
   write
SS=Self service
Update Fuel Prices
 

Would you like to see your business listed on this page?

 If your business provides an interesting product or service to pilots, flight crews, aircraft, or users of the Manchester Municipal Airport, you should consider listing it here.  To start the listing process, click on the button below
 
Add a business
 

Other Pages about Manchester Municipal Airport

www.manchester-ia.org/index.asp?Type=B_BASIC&SEC={E5D83828-A509-4E02-AAD5-ECE7F706B512}
Page from the Iowa Airport Directory
 
Update a link
 
Copyright © AirNav, LLC. All rights reserved. Privacy Policy  Contact